createdAt,value
2022-10-11T00:02:59.754Z,69.47
2022-10-11T00:06:03.785Z,69.48
2022-10-11T00:09:07.745Z,69.53
2022-10-11T00:12:10.832Z,69.55
2022-10-11T00:15:16.875Z,69.44
2022-10-11T00:18:19.947Z,69.56
2022-10-11T00:21:23.127Z,69.54
2022-10-11T00:24:26.085Z,69.50
2022-10-11T00:27:28.935Z,69.39
2022-10-11T00:30:32.431Z,69.37
2022-10-11T00:33:35.734Z,69.25
2022-10-11T00:36:38.875Z,69.23
2022-10-11T00:39:41.683Z,69.23
2022-10-11T00:42:44.791Z,69.16
2022-10-11T00:45:56.457Z,69.13
2022-10-11T00:49:13.632Z,69.05
2022-10-11T00:52:42.084Z,69.06
2022-10-11T00:55:54.224Z,69.05
2022-10-11T00:59:00.012Z,69.01
2022-10-11T01:02:04.879Z,68.96
2022-10-11T01:05:28.648Z,69.01
2022-10-11T01:08:32.724Z,68.92
2022-10-11T01:11:37.745Z,68.91
2022-10-11T01:15:01.880Z,68.91
2022-10-11T01:18:22.183Z,68.91
2022-10-11T01:21:47.008Z,68.93
2022-10-11T01:25:00.629Z,68.90
2022-10-11T01:28:24.964Z,68.93
2022-10-11T01:31:38.693Z,68.90
2022-10-11T01:35:01.762Z,68.96
2022-10-11T01:38:10.270Z,68.81
2022-10-11T01:41:24.058Z,68.83
2022-10-11T01:44:27.866Z,68.88
2022-10-11T01:47:31.024Z,68.78
2022-10-11T01:50:56.956Z,68.80
2022-10-11T01:54:05.882Z,68.87
2022-10-11T01:57:33.748Z,68.89
2022-10-11T02:01:04.198Z,68.87
2022-10-11T02:04:24.996Z,68.85
2022-10-11T02:07:41.039Z,68.86
2022-10-11T02:11:04.090Z,68.89
2022-10-11T02:14:11.628Z,68.84
2022-10-11T02:17:19.384Z,68.87
2022-10-11T02:20:26.251Z,68.92
2022-10-11T02:23:44.007Z,68.96
2022-10-11T02:26:54.659Z,68.89
2022-10-11T02:30:00.848Z,68.91
2022-10-11T02:33:08.417Z,68.93
2022-10-11T02:36:17.371Z,68.94
2022-10-11T02:39:34.455Z,68.91
2022-10-11T02:42:44.705Z,68.95
2022-10-11T02:45:55.900Z,68.95
2022-10-11T02:49:00.699Z,69.00
2022-10-11T02:52:05.289Z,69.04
2022-10-11T02:55:08.704Z,69.16
2022-10-11T02:58:11.495Z,69.23
2022-10-11T03:01:14.880Z,69.27
2022-10-11T03:04:17.716Z,69.37
2022-10-11T03:07:20.493Z,69.43
2022-10-11T03:10:23.325Z,69.48
2022-10-11T03:13:26.184Z,69.48
2022-10-11T03:16:29.064Z,69.48
2022-10-11T03:19:32.837Z,69.35
2022-10-11T03:22:35.680Z,69.37
2022-10-11T03:25:38.785Z,69.44
2022-10-11T03:28:41.707Z,69.51
2022-10-11T03:31:44.581Z,69.53
2022-10-11T03:34:47.416Z,69.51
2022-10-11T03:37:51.492Z,69.55
2022-10-11T03:40:54.827Z,69.65
2022-10-11T03:43:57.611Z,69.64
2022-10-11T03:47:00.374Z,69.65
2022-10-11T03:50:07.578Z,69.66
2022-10-11T03:53:10.483Z,69.71
2022-10-11T03:56:13.579Z,70.18
2022-10-11T03:59:16.942Z,70.57
2022-10-11T04:02:20.081Z,71.01
2022-10-11T04:05:23.023Z,71.61
2022-10-11T04:08:26.241Z,72.21
2022-10-11T04:11:29.056Z,72.73
2022-10-11T04:14:31.911Z,73.18
2022-10-11T04:17:34.821Z,73.35
2022-10-11T04:20:37.797Z,73.59
2022-10-11T04:23:40.595Z,73.90
2022-10-11T04:26:43.341Z,74.12
2022-10-11T04:29:46.122Z,74.39
2022-10-11T04:32:49.029Z,74.63
2022-10-11T04:35:56.213Z,74.85
2022-10-11T04:38:59.113Z,75.05
2022-10-11T04:42:01.904Z,75.32
2022-10-11T04:45:05.682Z,75.58
2022-10-11T04:48:08.743Z,75.71
2022-10-11T04:51:11.575Z,75.84
2022-10-11T04:54:14.628Z,75.97
2022-10-11T04:57:17.411Z,76.11
2022-10-11T05:00:20.319Z,76.21
2022-10-11T05:03:23.988Z,76.25
2022-10-11T05:06:26.856Z,76.35
2022-10-11T05:09:29.742Z,76.48
2022-10-11T05:12:32.579Z,76.61
2022-10-11T05:15:35.405Z,76.58
2022-10-11T05:18:39.240Z,76.65
2022-10-11T05:21:42.117Z,76.75
2022-10-11T05:24:45.005Z,76.82
2022-10-11T05:27:48.017Z,76.92
2022-10-11T05:30:50.854Z,77.09
2022-10-11T05:33:53.722Z,77.17
2022-10-11T05:36:57.216Z,77.31
2022-10-11T05:40:00.071Z,77.41
2022-10-11T05:43:02.908Z,77.50
2022-10-11T05:46:06.202Z,77.69
2022-10-11T05:49:09.644Z,77.89
2022-10-11T05:52:13.685Z,78.09
2022-10-11T05:55:16.549Z,78.24
2022-10-11T05:58:19.455Z,78.41
2022-10-11T06:01:25.082Z,78.59
2022-10-11T06:04:28.172Z,78.72
2022-10-11T06:07:31.094Z,78.93
2022-10-11T06:10:34.920Z,79.09
2022-10-11T06:13:37.761Z,79.17
2022-10-11T06:16:40.736Z,79.15
2022-10-11T06:19:46.370Z,79.19
2022-10-11T06:22:49.263Z,79.39
2022-10-11T06:26:05.961Z,79.52
2022-10-11T06:29:09.902Z,79.47
2022-10-11T06:32:13.430Z,79.63
2022-10-11T06:35:16.358Z,79.75
2022-10-11T06:38:19.250Z,79.78
2022-10-11T06:41:27.464Z,79.77
2022-10-11T06:44:30.338Z,79.57
2022-10-11T06:47:33.261Z,79.47
2022-10-11T06:50:58.643Z,79.54
2022-10-11T06:54:01.949Z,79.51
2022-10-11T06:57:04.883Z,79.31
2022-10-11T07:00:12.514Z,79.38
2022-10-11T07:03:15.645Z,79.39
2022-10-11T07:06:24.549Z,79.37
2022-10-11T07:09:27.371Z,79.26
2022-10-11T07:12:30.162Z,79.15
2022-10-11T07:15:38.151Z,79.20
2022-10-11T07:18:41.001Z,79.17
2022-10-11T07:21:43.831Z,79.14
2022-10-11T07:24:49.100Z,79.04
2022-10-11T07:27:51.897Z,79.04
2022-10-11T07:30:54.791Z,78.90
2022-10-11T07:33:57.689Z,78.83
2022-10-11T07:37:00.527Z,78.75
2022-10-11T07:40:03.901Z,78.88
2022-10-11T07:43:06.726Z,78.69
2022-10-11T07:46:11.303Z,78.51
2022-10-11T07:49:14.206Z,78.45
2022-10-11T07:52:17.093Z,78.37
2022-10-11T07:55:20.291Z,78.17
2022-10-11T07:58:23.082Z,77.94
2022-10-11T08:01:27.559Z,77.91
2022-10-11T08:04:30.435Z,77.85
2022-10-11T08:07:33.369Z,77.72
2022-10-11T08:10:54.207Z,77.75
2022-10-11T08:13:58.229Z,77.68
2022-10-11T08:17:02.444Z,77.77
2022-10-11T08:20:05.680Z,77.79
2022-10-11T08:23:09.627Z,77.78
2022-10-11T08:26:12.554Z,77.78
2022-10-11T08:29:15.408Z,77.91
2022-10-11T08:32:18.272Z,77.92
2022-10-11T08:35:21.992Z,78.03
2022-10-11T08:38:25.386Z,77.99
2022-10-11T08:41:42.330Z,77.98
2022-10-11T08:45:16.185Z,78.10
2022-10-11T08:48:30.101Z,78.17
2022-10-11T08:52:00.150Z,78.07
2022-10-11T08:55:34.829Z,78.12
2022-10-11T08:58:44.531Z,78.09
2022-10-11T09:01:54.501Z,78.12
2022-10-11T09:04:57.499Z,78.14
2022-10-11T09:08:09.043Z,78.15
2022-10-11T09:11:35.761Z,77.98
2022-10-11T09:15:16.675Z,78.02
2022-10-11T09:18:44.933Z,78.02
2022-10-11T09:22:17.067Z,77.93
2022-10-11T09:25:29.827Z,77.93
2022-10-11T09:28:41.889Z,78.00
2022-10-11T09:31:49.167Z,78.06
2022-10-11T09:35:11.225Z,78.08
2022-10-11T09:38:29.599Z,77.98
2022-10-11T09:41:39.569Z,77.98
2022-10-11T09:44:48.263Z,77.80
2022-10-11T09:47:53.676Z,77.86
2022-10-11T09:51:05.263Z,77.84
2022-10-11T09:54:10.521Z,77.85
2022-10-11T09:57:35.947Z,77.77
2022-10-11T10:00:38.927Z,77.65
2022-10-11T10:03:44.098Z,77.37
2022-10-11T10:06:46.968Z,77.09
2022-10-11T10:09:50.591Z,76.90
2022-10-11T10:12:56.231Z,76.92
2022-10-11T10:15:59.530Z,76.69
2022-10-11T10:19:06.489Z,76.47
2022-10-11T10:22:22.818Z,76.53
2022-10-11T10:25:35.952Z,76.45
2022-10-11T10:29:03.851Z,76.29
2022-10-11T10:32:20.921Z,76.08
2022-10-11T10:35:31.571Z,75.92
2022-10-11T10:38:40.446Z,75.49
2022-10-11T10:41:43.304Z,75.25
2022-10-11T10:44:53.100Z,75.04
2022-10-11T10:48:26.004Z,74.84
2022-10-11T10:51:31.999Z,74.78
2022-10-11T10:54:49.229Z,74.49
2022-10-11T10:58:19.983Z,74.37
2022-10-11T11:01:26.608Z,74.33
2022-10-11T11:04:35.074Z,74.43
2022-10-11T11:07:50.179Z,73.86
2022-10-11T11:11:01.034Z,73.41
2022-10-11T11:14:21.669Z,72.85
2022-10-11T11:17:52.158Z,72.41
2022-10-11T11:21:21.052Z,72.12
2022-10-11T11:25:01.558Z,71.90
2022-10-11T11:28:29.603Z,71.43
2022-10-11T11:31:51.423Z,71.07
2022-10-11T11:35:02.219Z,71.11
2022-10-11T11:38:27.137Z,71.14
2022-10-11T11:41:40.758Z,71.23
2022-10-11T11:44:46.883Z,71.23
2022-10-11T11:47:56.171Z,71.12
2022-10-11T11:51:08.916Z,70.48
2022-10-11T11:54:32.393Z,70.25
2022-10-11T11:58:07.575Z,69.86
2022-10-11T12:01:17.903Z,69.91
2022-10-11T12:04:28.583Z,69.17
2022-10-11T12:07:31.539Z,68.72
2022-10-11T12:10:49.569Z,68.54
2022-10-11T12:13:54.019Z,67.90
2022-10-11T12:17:20.166Z,67.35
2022-10-11T12:20:24.947Z,67.28
2022-10-11T12:23:30.808Z,66.73
2022-10-11T12:26:41.564Z,66.43
2022-10-11T12:29:48.412Z,65.56
2022-10-11T12:33:02.827Z,65.23
2022-10-11T12:36:20.653Z,65.45
2022-10-11T12:39:23.985Z,64.65
2022-10-11T12:42:37.009Z,64.25
2022-10-11T12:45:41.735Z,64.14
2022-10-11T12:49:14.186Z,64.16
2022-10-11T12:52:33.720Z,63.97
2022-10-11T12:56:00.835Z,63.30
2022-10-11T12:59:06.973Z,62.97
2022-10-11T13:02:38.832Z,62.85
2022-10-11T13:05:45.223Z,63.02
2022-10-11T13:08:54.835Z,62.65
2022-10-11T13:12:18.614Z,62.62
2022-10-11T13:15:23.678Z,62.18
2022-10-11T13:18:27.125Z,61.61
2022-10-11T13:21:39.553Z,61.34
2022-10-11T13:24:42.837Z,61.13
2022-10-11T13:27:47.758Z,60.97
2022-10-11T13:30:56.325Z,61.46
2022-10-11T13:33:59.988Z,61.26
2022-10-11T13:37:03.101Z,61.49
2022-10-11T13:40:06.778Z,61.18
2022-10-11T13:43:09.899Z,61.28
2022-10-11T13:46:23.033Z,61.39
2022-10-11T13:49:37.308Z,60.91
2022-10-11T13:52:58.019Z,60.56
2022-10-11T13:56:05.033Z,60.48
2022-10-11T13:59:21.011Z,60.57
2022-10-11T14:02:25.944Z,60.75
2022-10-11T14:05:36.711Z,60.96
2022-10-11T14:08:46.747Z,60.86
2022-10-11T14:11:50.234Z,60.59
2022-10-11T14:14:53.138Z,60.64
2022-10-11T14:17:56.257Z,60.54
2022-10-11T14:21:23.582Z,60.27
2022-10-11T14:24:27.383Z,60.07
2022-10-11T14:27:30.664Z,60.74
2022-10-11T14:30:33.546Z,61.29
2022-10-11T14:33:37.359Z,61.03
2022-10-11T14:36:40.521Z,60.86
2022-10-11T14:39:43.582Z,61.46
2022-10-11T14:42:46.784Z,61.27
2022-10-11T14:45:49.880Z,61.32
2022-10-11T14:48:55.854Z,61.30
2022-10-11T14:51:59.474Z,61.82
2022-10-11T14:55:02.336Z,62.11
2022-10-11T14:58:06.330Z,62.55
2022-10-11T15:01:16.329Z,62.82
2022-10-11T15:04:21.239Z,62.93
2022-10-11T15:07:24.061Z,62.93
2022-10-11T15:10:31.463Z,68.70
2022-10-11T15:13:34.355Z,66.65
2022-10-11T15:16:37.330Z,65.40
2022-10-11T15:19:40.088Z,64.93
2022-10-11T15:22:42.886Z,63.99
2022-10-11T15:25:46.289Z,64.14
2022-10-11T15:28:50.859Z,64.13
2022-10-11T15:31:53.736Z,64.23
2022-10-11T15:34:56.572Z,64.14
2022-10-11T15:38:00.301Z,64.33
2022-10-11T15:41:04.432Z,64.43
2022-10-11T15:44:07.229Z,64.17
2022-10-11T15:47:10.956Z,64.66
2022-10-11T15:50:19.031Z,64.88
2022-10-11T15:53:26.501Z,64.83
2022-10-11T15:56:33.668Z,64.78
2022-10-11T15:59:37.354Z,64.89
2022-10-11T16:02:40.775Z,65.07
2022-10-11T16:05:44.594Z,65.31
2022-10-11T16:08:48.090Z,65.59
2022-10-11T16:11:51.000Z,65.97
2022-10-11T16:14:54.646Z,66.09
2022-10-11T16:17:58.226Z,66.12
2022-10-11T16:21:01.205Z,66.14
2022-10-11T16:24:04.854Z,66.20
2022-10-11T16:27:07.721Z,66.16
2022-10-11T16:30:16.899Z,66.30
2022-10-11T16:33:19.917Z,66.45
2022-10-11T16:36:32.590Z,66.53
2022-10-11T16:39:36.268Z,66.68
2022-10-11T16:42:39.471Z,66.86
2022-10-11T16:45:42.393Z,66.93
2022-10-11T16:48:45.347Z,66.98
2022-10-11T16:51:48.860Z,67.07
2022-10-11T16:54:51.876Z,67.08
2022-10-11T16:57:54.801Z,67.21
2022-10-11T17:00:57.801Z,67.33
2022-10-11T17:04:01.157Z,67.39
2022-10-11T17:07:05.866Z,67.47
2022-10-11T17:10:08.895Z,67.52
2022-10-11T17:13:12.214Z,67.54
2022-10-11T17:16:16.509Z,67.56
2022-10-11T17:19:19.333Z,67.52
2022-10-11T17:22:22.227Z,67.55
2022-10-11T17:25:25.300Z,67.56
2022-10-11T17:28:28.240Z,67.68
2022-10-11T17:31:31.561Z,67.89
2022-10-11T17:34:34.731Z,68.18
2022-10-11T17:37:37.595Z,68.18
2022-10-11T17:40:40.360Z,68.37
2022-10-11T17:43:43.484Z,68.46
2022-10-11T17:46:46.974Z,68.51
2022-10-11T17:49:49.962Z,68.56
2022-10-11T17:52:53.877Z,68.65
2022-10-11T17:55:59.812Z,68.61
2022-10-11T17:59:02.782Z,68.64
2022-10-11T18:02:06.343Z,68.66
2022-10-11T18:05:09.318Z,68.84
2022-10-11T18:08:12.720Z,68.83
2022-10-11T18:11:19.047Z,68.73
2022-10-11T18:14:22.045Z,68.76
2022-10-11T18:17:24.894Z,68.89
2022-10-11T18:20:28.451Z,69.00
2022-10-11T18:23:32.550Z,68.98
2022-10-11T18:26:35.427Z,68.99
2022-10-11T18:29:38.460Z,68.94
2022-10-11T18:32:41.462Z,68.90
2022-10-11T18:35:47.198Z,68.96
2022-10-11T18:38:54.505Z,69.01
2022-10-11T18:41:57.307Z,68.97
2022-10-11T18:45:00.097Z,69.04
2022-10-11T18:48:03.103Z,69.02
2022-10-11T18:51:08.953Z,68.96
2022-10-11T18:54:15.455Z,68.89
2022-10-11T18:57:21.458Z,68.89
2022-10-11T19:00:40.027Z,68.96
2022-10-11T19:03:45.847Z,69.01
2022-10-11T19:06:49.754Z,69.32
2022-10-11T19:09:53.232Z,69.40
2022-10-11T19:12:56.230Z,69.25
2022-10-11T19:16:11.128Z,69.13
2022-10-11T19:19:13.959Z,69.11
2022-10-11T19:22:16.988Z,69.04
2022-10-11T19:25:19.920Z,69.00
2022-10-11T19:28:22.753Z,68.79
2022-10-11T19:31:25.748Z,68.61
2022-10-11T19:34:30.033Z,68.67
2022-10-11T19:37:33.086Z,68.74
2022-10-11T19:40:39.478Z,68.74
2022-10-11T19:43:43.256Z,68.87
2022-10-11T19:46:53.483Z,68.89
2022-10-11T19:49:56.361Z,68.89
2022-10-11T19:52:59.179Z,68.95
2022-10-11T19:56:07.969Z,69.05
2022-10-11T19:59:12.071Z,69.12
2022-10-11T20:02:15.220Z,69.22
2022-10-11T20:05:18.113Z,69.31
2022-10-11T20:08:21.113Z,69.31
2022-10-11T20:11:24.887Z,69.36
2022-10-11T20:14:27.754Z,69.34
2022-10-11T20:17:56.791Z,69.24
2022-10-11T20:21:03.401Z,69.24
2022-10-11T20:24:08.509Z,69.36
2022-10-11T20:27:11.309Z,69.36
2022-10-11T20:30:14.791Z,69.52
2022-10-11T20:33:17.590Z,69.55
2022-10-11T20:36:22.020Z,69.54
2022-10-11T20:39:25.335Z,69.48
2022-10-11T20:42:29.965Z,69.37
2022-10-11T20:45:32.907Z,69.43
2022-10-11T20:48:37.072Z,69.47
2022-10-11T20:51:41.889Z,69.40
2022-10-11T20:54:44.756Z,69.49
2022-10-11T20:57:47.665Z,69.53
2022-10-11T21:00:50.590Z,69.48
2022-10-11T21:03:54.199Z,69.53
2022-10-11T21:06:57.072Z,69.56
2022-10-11T21:10:00.042Z,69.60
2022-10-11T21:13:03.280Z,69.66
2022-10-11T21:16:13.523Z,69.65
2022-10-11T21:19:16.403Z,69.52
2022-10-11T21:22:19.547Z,69.47
2022-10-11T21:25:22.340Z,69.47
2022-10-11T21:28:25.210Z,69.52
2022-10-11T21:31:33.601Z,69.50
2022-10-11T21:34:37.680Z,69.45
2022-10-11T21:37:40.483Z,69.42
2022-10-11T21:40:43.291Z,69.40
2022-10-11T21:43:47.311Z,69.37
2022-10-11T21:47:07.343Z,69.50
2022-10-11T21:50:10.566Z,69.49
2022-10-11T21:53:13.344Z,69.50
2022-10-11T21:56:16.310Z,69.61
2022-10-11T21:59:19.123Z,69.54
2022-10-11T22:02:21.904Z,69.45
2022-10-11T22:05:24.914Z,69.41
2022-10-11T22:08:27.688Z,69.43
2022-10-11T22:11:32.194Z,69.47
2022-10-11T22:14:35.314Z,69.51
2022-10-11T22:17:38.093Z,69.53
2022-10-11T22:20:40.982Z,69.42
2022-10-11T22:23:46.745Z,69.37
2022-10-11T22:26:49.523Z,69.36
2022-10-11T22:29:52.350Z,69.38
2022-10-11T22:32:55.152Z,69.33
2022-10-11T22:36:00.690Z,69.41
2022-10-11T22:39:07.844Z,69.49
2022-10-11T22:42:10.748Z,69.50
2022-10-11T22:45:13.636Z,69.49
2022-10-11T22:48:16.498Z,69.50
2022-10-11T22:51:19.586Z,69.52
2022-10-11T22:54:22.435Z,69.54
2022-10-11T22:57:25.229Z,69.51
2022-10-11T23:00:28.149Z,69.54
2022-10-11T23:03:31.036Z,69.58
2022-10-11T23:06:33.863Z,69.57
2022-10-11T23:09:36.692Z,69.64
2022-10-11T23:12:39.519Z,69.72
2022-10-11T23:15:42.656Z,69.70
2022-10-11T23:18:45.517Z,69.69
2022-10-11T23:21:48.496Z,69.74
2022-10-11T23:24:51.397Z,69.79
2022-10-11T23:27:54.219Z,69.80
2022-10-11T23:30:57.082Z,69.80
2022-10-11T23:33:59.911Z,69.73
2022-10-11T23:37:03.353Z,69.65
2022-10-11T23:40:06.883Z,69.72
2022-10-11T23:43:09.693Z,69.80
2022-10-11T23:46:12.544Z,69.74
2022-10-11T23:49:15.470Z,69.69
2022-10-11T23:52:18.440Z,69.70
2022-10-11T23:55:21.402Z,69.72
2022-10-11T23:58:24.186Z,69.68
